sensor_id;sensor_type;location;lat;lon;timestamp;P1;durP1;ratioP1;P2;durP2;ratioP2
9536;SDS011;4807;48.024;11.726;2023-04-15T00:00:08;4.50;;;1.60;;
9536;SDS011;4807;48.024;11.726;2023-04-15T00:03:18;2.23;;;1.70;;
9536;SDS011;4807;48.024;11.726;2023-04-15T00:06:28;5.13;;;1.40;;
9536;SDS011;4807;48.024;11.726;2023-04-15T00:09:37;1.40;;;1.30;;
9536;SDS011;4807;48.024;11.726;2023-04-15T00:12:48;2.80;;;1.40;;
9536;SDS011;4807;48.024;11.726;2023-04-15T00:15:56;2.70;;;1.80;;
9536;SDS011;4807;48.024;11.726;2023-04-15T00:19:04;2.37;;;1.70;;
9536;SDS011;4807;48.024;11.726;2023-04-15T00:22:14;3.40;;;1.40;;
9536;SDS011;4807;48.024;11.726;2023-04-15T00:25:22;2.07;;;1.33;;
9536;SDS011;4807;48.024;11.726;2023-04-15T00:28:31;2.77;;;1.30;;
9536;SDS011;4807;48.024;11.726;2023-04-15T00:31:39;2.47;;;1.60;;
9536;SDS011;4807;48.024;11.726;2023-04-15T00:34:49;3.50;;;1.90;;
9536;SDS011;4807;48.024;11.726;2023-04-15T00:37:59;3.90;;;1.60;;
9536;SDS011;4807;48.024;11.726;2023-04-15T00:41:08;2.60;;;1.73;;
9536;SDS011;4807;48.024;11.726;2023-04-15T00:44:18;4.33;;;1.83;;
9536;SDS011;4807;48.024;11.726;2023-04-15T00:47:26;4.73;;;1.87;;
9536;SDS011;4807;48.024;11.726;2023-04-15T00:50:37;1.60;;;1.50;;
9536;SDS011;4807;48.024;11.726;2023-04-15T00:53:47;1.70;;;1.60;;
9536;SDS011;4807;48.024;11.726;2023-04-15T00:56:57;5.43;;;1.90;;
9536;SDS011;4807;48.024;11.726;2023-04-15T01:00:06;3.27;;;1.83;;
9536;SDS011;4807;48.024;11.726;2023-04-15T01:03:17;4.50;;;1.80;;
9536;SDS011;4807;48.024;11.726;2023-04-15T01:06:26;1.90;;;1.43;;
9536;SDS011;4807;48.024;11.726;2023-04-15T01:09:36;7.63;;;2.07;;
9536;SDS011;4807;48.024;11.726;2023-04-15T01:12:44;4.23;;;1.80;;
9536;SDS011;4807;48.024;11.726;2023-04-15T01:15:52;3.30;;;2.03;;
9536;SDS011;4807;48.024;11.726;2023-04-15T01:19:03;6.73;;;1.97;;
9536;SDS011;4807;48.024;11.726;2023-04-15T01:22:12;4.83;;;2.20;;
9536;SDS011;4807;48.024;11.726;2023-04-15T01:25:27;2.33;;;1.97;;
9536;SDS011;4807;48.024;11.726;2023-04-15T01:28:38;4.43;;;2.27;;
9536;SDS011;4807;48.024;11.726;2023-04-15T01:31:53;3.83;;;2.30;;
9536;SDS011;4807;48.024;11.726;2023-04-15T01:35:05;2.60;;;1.47;;
9536;SDS011;4807;48.024;11.726;2023-04-15T01:38:14;3.37;;;1.83;;
9536;SDS011;4807;48.024;11.726;2023-04-15T01:41:25;2.83;;;1.80;;
9536;SDS011;4807;48.024;11.726;2023-04-15T01:44:34;4.17;;;1.90;;
9536;SDS011;4807;48.024;11.726;2023-04-15T01:47:42;4.43;;;2.13;;
9536;SDS011;4807;48.024;11.726;2023-04-15T01:50:51;5.20;;;1.60;;
9536;SDS011;4807;48.024;11.726;2023-04-15T01:54:01;2.07;;;1.60;;
9536;SDS011;4807;48.024;11.726;2023-04-15T01:57:11;2.73;;;1.77;;
9536;SDS011;4807;48.024;11.726;2023-04-15T02:00:19;3.50;;;2.00;;
9536;SDS011;4807;48.024;11.726;2023-04-15T02:03:30;2.90;;;1.97;;
9536;SDS011;4807;48.024;11.726;2023-04-15T02:06:39;2.27;;;1.73;;
9536;SDS011;4807;48.024;11.726;2023-04-15T02:09:47;2.70;;;2.03;;
9536;SDS011;4807;48.024;11.726;2023-04-15T02:12:57;2.83;;;2.23;;
9536;SDS011;4807;48.024;11.726;2023-04-15T02:16:14;2.17;;;1.70;;
9536;SDS011;4807;48.024;11.726;2023-04-15T02:19:24;4.77;;;1.90;;
9536;SDS011;4807;48.024;11.726;2023-04-15T02:22:32;5.33;;;2.03;;
9536;SDS011;4807;48.024;11.726;2023-04-15T02:25:41;3.93;;;1.83;;
9536;SDS011;4807;48.024;11.726;2023-04-15T02:29:01;2.20;;;2.00;;
9536;SDS011;4807;48.024;11.726;2023-04-15T02:32:09;3.73;;;1.73;;
9536;SDS011;4807;48.024;11.726;2023-04-15T02:35:18;4.47;;;1.87;;
9536;SDS011;4807;48.024;11.726;2023-04-15T02:38:26;2.20;;;1.77;;
9536;SDS011;4807;48.024;11.726;2023-04-15T02:41:36;2.83;;;2.00;;
9536;SDS011;4807;48.024;11.726;2023-04-15T02:44:45;3.03;;;1.83;;
9536;SDS011;4807;48.024;11.726;2023-04-15T02:47:54;4.07;;;1.70;;
9536;SDS011;4807;48.024;11.726;2023-04-15T02:51:11;4.97;;;1.80;;
9536;SDS011;4807;48.024;11.726;2023-04-15T02:54:20;3.00;;;1.50;;
9536;SDS011;4807;48.024;11.726;2023-04-15T02:57:30;2.43;;;1.50;;
9536;SDS011;4807;48.024;11.726;2023-04-15T03:00:45;2.70;;;1.60;;
9536;SDS011;4807;48.024;11.726;2023-04-15T03:03:56;3.17;;;1.80;;
9536;SDS011;4807;48.024;11.726;2023-04-15T03:07:04;1.70;;;1.53;;
9536;SDS011;4807;48.024;11.726;2023-04-15T03:10:12;3.60;;;1.63;;
9536;SDS011;4807;48.024;11.726;2023-04-15T03:13:20;3.17;;;2.20;;
9536;SDS011;4807;48.024;11.726;2023-04-15T03:16:31;3.77;;;1.73;;
9536;SDS011;4807;48.024;11.726;2023-04-15T03:19:39;3.40;;;1.90;;
9536;SDS011;4807;48.024;11.726;2023-04-15T03:22:47;3.33;;;1.50;;
9536;SDS011;4807;48.024;11.726;2023-04-15T03:26:00;3.97;;;1.90;;
9536;SDS011;4807;48.024;11.726;2023-04-15T03:29:11;2.17;;;1.60;;
9536;SDS011;4807;48.024;11.726;2023-04-15T03:32:20;6.43;;;2.10;;
9536;SDS011;4807;48.024;11.726;2023-04-15T03:35:28;2.83;;;1.57;;
9536;SDS011;4807;48.024;11.726;2023-04-15T03:38:37;4.67;;;1.97;;
9536;SDS011;4807;48.024;11.726;2023-04-15T03:41:45;3.17;;;1.43;;
9536;SDS011;4807;48.024;11.726;2023-04-15T03:44:53;4.40;;;2.27;;
9536;SDS011;4807;48.024;11.726;2023-04-15T03:48:05;4.73;;;1.67;;
9536;SDS011;4807;48.024;11.726;2023-04-15T03:51:23;2.37;;;1.67;;
9536;SDS011;4807;48.024;11.726;2023-04-15T03:54:31;1.70;;;1.30;;
9536;SDS011;4807;48.024;11.726;2023-04-15T03:57:40;1.63;;;1.33;;
9536;SDS011;4807;48.024;11.726;2023-04-15T04:00:48;2.23;;;1.63;;
9536;SDS011;4807;48.024;11.726;2023-04-15T04:03:57;2.97;;;1.57;;
9536;SDS011;4807;48.024;11.726;2023-04-15T04:07:06;2.30;;;1.27;;
9536;SDS011;4807;48.024;11.726;2023-04-15T04:10:14;3.00;;;1.50;;
9536;SDS011;4807;48.024;11.726;2023-04-15T04:13:23;3.60;;;1.40;;
9536;SDS011;4807;48.024;11.726;2023-04-15T04:16:31;2.43;;;1.47;;
9536;SDS011;4807;48.024;11.726;2023-04-15T04:19:40;1.80;;;1.20;;
9536;SDS011;4807;48.024;11.726;2023-04-15T04:22:49;2.27;;;1.10;;
9536;SDS011;4807;48.024;11.726;2023-04-15T04:25:57;1.37;;;1.20;;
9536;SDS011;4807;48.024;11.726;2023-04-15T04:29:05;2.23;;;1.00;;
9536;SDS011;4807;48.024;11.726;2023-04-15T04:32:13;1.57;;;1.47;;
9536;SDS011;4807;48.024;11.726;2023-04-15T04:35:23;1.30;;;1.20;;
9536;SDS011;4807;48.024;11.726;2023-04-15T04:38:31;2.20;;;1.00;;
9536;SDS011;4807;48.024;11.726;2023-04-15T04:41:39;1.43;;;1.33;;
9536;SDS011;4807;48.024;11.726;2023-04-15T04:44:47;4.93;;;1.60;;
9536;SDS011;4807;48.024;11.726;2023-04-15T04:47:55;3.83;;;1.27;;
9536;SDS011;4807;48.024;11.726;2023-04-15T04:51:05;2.40;;;1.43;;
9536;SDS011;4807;48.024;11.726;2023-04-15T04:54:14;2.90;;;1.20;;
9536;SDS011;4807;48.024;11.726;2023-04-15T04:57:22;2.23;;;1.40;;
9536;SDS011;4807;48.024;11.726;2023-04-15T05:00:31;1.57;;;1.17;;
9536;SDS011;4807;48.024;11.726;2023-04-15T05:03:39;3.60;;;1.40;;
9536;SDS011;4807;48.024;11.726;2023-04-15T05:06:49;1.00;;;0.90;;
9536;SDS011;4807;48.024;11.726;2023-04-15T05:09:57;1.60;;;0.90;;
9536;SDS011;4807;48.024;11.726;2023-04-15T05:13:05;3.70;;;1.50;;
9536;SDS011;4807;48.024;11.726;2023-04-15T05:16:14;4.40;;;1.23;;
9536;SDS011;4807;48.024;11.726;2023-04-15T05:19:22;3.17;;;1.20;;
9536;SDS011;4807;48.024;11.726;2023-04-15T05:22:32;4.10;;;1.20;;
9536;SDS011;4807;48.024;11.726;2023-04-15T05:25:40;1.63;;;0.87;;
9536;SDS011;4807;48.024;11.726;2023-04-15T05:28:48;2.70;;;1.40;;
9536;SDS011;4807;48.024;11.726;2023-04-15T05:31:57;2.87;;;1.63;;
9536;SDS011;4807;48.024;11.726;2023-04-15T05:35:05;1.33;;;1.23;;
9536;SDS011;4807;48.024;11.726;2023-04-15T05:38:15;3.27;;;2.00;;
9536;SDS011;4807;48.024;11.726;2023-04-15T05:41:23;2.43;;;0.90;;
9536;SDS011;4807;48.024;11.726;2023-04-15T05:44:31;4.97;;;1.70;;
9536;SDS011;4807;48.024;11.726;2023-04-15T05:47:40;2.77;;;1.20;;
9536;SDS011;4807;48.024;11.726;2023-04-15T05:50:48;3.23;;;1.27;;
9536;SDS011;4807;48.024;11.726;2023-04-15T05:53:58;2.47;;;1.47;;
9536;SDS011;4807;48.024;11.726;2023-04-15T05:57:06;2.70;;;1.37;;
9536;SDS011;4807;48.024;11.726;2023-04-15T06:00:14;3.60;;;1.13;;
9536;SDS011;4807;48.024;11.726;2023-04-15T06:03:23;2.53;;;1.00;;
9536;SDS011;4807;48.024;11.726;2023-04-15T06:06:31;3.00;;;1.07;;
9536;SDS011;4807;48.024;11.726;2023-04-15T06:09:41;4.53;;;1.83;;
9536;SDS011;4807;48.024;11.726;2023-04-15T06:12:51;3.50;;;1.00;;
9536;SDS011;4807;48.024;11.726;2023-04-15T06:16:00;2.07;;;0.80;;
9536;SDS011;4807;48.024;11.726;2023-04-15T06:19:08;2.80;;;1.93;;
9536;SDS011;4807;48.024;11.726;2023-04-15T06:22:17;2.07;;;1.17;;
9536;SDS011;4807;48.024;11.726;2023-04-15T06:25:27;2.13;;;0.90;;
9536;SDS011;4807;48.024;11.726;2023-04-15T06:28:35;2.60;;;1.00;;
9536;SDS011;4807;48.024;11.726;2023-04-15T06:31:43;2.03;;;0.60;;
9536;SDS011;4807;48.024;11.726;2023-04-15T06:34:53;2.00;;;0.90;;
9536;SDS011;4807;48.024;11.726;2023-04-15T06:38:02;2.60;;;1.53;;
9536;SDS011;4807;48.024;11.726;2023-04-15T06:41:11;4.23;;;1.07;;
9536;SDS011;4807;48.024;11.726;2023-04-15T06:44:19;3.17;;;2.47;;
9536;SDS011;4807;48.024;11.726;2023-04-15T06:47:27;2.20;;;1.37;;
9536;SDS011;4807;48.024;11.726;2023-04-15T06:50:36;2.90;;;1.10;;
9536;SDS011;4807;48.024;11.726;2023-04-15T06:53:44;1.97;;;0.77;;
9536;SDS011;4807;48.024;11.726;2023-04-15T06:56:53;2.77;;;0.87;;
9536;SDS011;4807;48.024;11.726;2023-04-15T07:00:02;2.07;;;0.73;;
9536;SDS011;4807;48.024;11.726;2023-04-15T07:03:12;3.43;;;0.90;;
9536;SDS011;4807;48.024;11.726;2023-04-15T07:06:21;1.40;;;0.90;;
9536;SDS011;4807;48.024;11.726;2023-04-15T07:09:30;3.53;;;1.50;;
9536;SDS011;4807;48.024;11.726;2023-04-15T07:12:40;4.30;;;2.17;;
9536;SDS011;4807;48.024;11.726;2023-04-15T07:15:48;1.93;;;0.70;;
9536;SDS011;4807;48.024;11.726;2023-04-15T07:18:56;1.70;;;0.60;;
9536;SDS011;4807;48.024;11.726;2023-04-15T07:22:05;2.20;;;0.80;;
9536;SDS011;4807;48.024;11.726;2023-04-15T07:25:13;1.50;;;0.60;;
9536;SDS011;4807;48.024;11.726;2023-04-15T07:28:24;1.67;;;0.70;;
9536;SDS011;4807;48.024;11.726;2023-04-15T07:31:34;1.50;;;0.80;;
9536;SDS011;4807;48.024;11.726;2023-04-15T07:34:43;1.80;;;0.70;;
9536;SDS011;4807;48.024;11.726;2023-04-15T07:37:51;1.90;;;0.50;;
9536;SDS011;4807;48.024;11.726;2023-04-15T07:40:59;1.00;;;0.60;;
9536;SDS011;4807;48.024;11.726;2023-04-15T07:44:09;1.27;;;0.60;;
9536;SDS011;4807;48.024;11.726;2023-04-15T07:47:18;2.20;;;0.50;;
9536;SDS011;4807;48.024;11.726;2023-04-15T07:50:26;2.03;;;1.13;;
9536;SDS011;4807;48.024;11.726;2023-04-15T07:53:35;1.00;;;0.57;;
9536;SDS011;4807;48.024;11.726;2023-04-15T07:56:43;1.37;;;0.60;;
9536;SDS011;4807;48.024;11.726;2023-04-15T07:59:53;2.70;;;0.63;;
9536;SDS011;4807;48.024;11.726;2023-04-15T08:03:01;1.33;;;0.73;;
9536;SDS011;4807;48.024;11.726;2023-04-15T08:06:10;1.57;;;0.70;;
9536;SDS011;4807;48.024;11.726;2023-04-15T08:09:18;1.77;;;0.67;;
9536;SDS011;4807;48.024;11.726;2023-04-15T08:12:27;0.70;;;0.60;;
9536;SDS011;4807;48.024;11.726;2023-04-15T08:15:38;2.90;;;0.90;;
9536;SDS011;4807;48.024;11.726;2023-04-15T08:18:46;2.57;;;0.90;;
9536;SDS011;4807;48.024;11.726;2023-04-15T08:21:57;0.87;;;0.70;;
9536;SDS011;4807;48.024;11.726;2023-04-15T08:25:06;1.23;;;0.60;;
9536;SDS011;4807;48.024;11.726;2023-04-15T08:28:15;1.00;;;0.60;;
9536;SDS011;4807;48.024;11.726;2023-04-15T08:31:25;1.23;;;0.90;;
9536;SDS011;4807;48.024;11.726;2023-04-15T08:34:36;5.90;;;0.70;;
9536;SDS011;4807;48.024;11.726;2023-04-15T08:37:44;1.87;;;0.63;;
9536;SDS011;4807;48.024;11.726;2023-04-15T08:40:52;1.47;;;0.80;;
9536;SDS011;4807;48.024;11.726;2023-04-15T08:44:04;2.23;;;0.70;;
9536;SDS011;4807;48.024;11.726;2023-04-15T08:47:15;2.27;;;0.73;;
9536;SDS011;4807;48.024;11.726;2023-04-15T08:50:28;1.43;;;0.80;;
9536;SDS011;4807;48.024;11.726;2023-04-15T08:53:39;2.20;;;0.90;;
9536;SDS011;4807;48.024;11.726;2023-04-15T08:56:47;1.70;;;1.00;;
9536;SDS011;4807;48.024;11.726;2023-04-15T08:59:56;1.50;;;0.63;;
9536;SDS011;4807;48.024;11.726;2023-04-15T09:03:07;1.60;;;0.80;;
9536;SDS011;4807;48.024;11.726;2023-04-15T09:06:16;0.87;;;0.80;;
9536;SDS011;4807;48.024;11.726;2023-04-15T09:09:25;1.83;;;0.87;;
9536;SDS011;4807;48.024;11.726;2023-04-15T09:12:34;5.40;;;1.00;;
9536;SDS011;4807;48.024;11.726;2023-04-15T09:15:43;4.10;;;1.00;;
9536;SDS011;4807;48.024;11.726;2023-04-15T09:18:53;2.30;;;0.80;;
9536;SDS011;4807;48.024;11.726;2023-04-15T09:22:02;2.87;;;1.00;;
9536;SDS011;4807;48.024;11.726;2023-04-15T09:25:26;1.30;;;1.20;;
9536;SDS011;4807;48.024;11.726;2023-04-15T09:28:40;2.33;;;0.90;;
9536;SDS011;4807;48.024;11.726;2023-04-15T09:31:49;3.87;;;1.70;;
9536;SDS011;4807;48.024;11.726;2023-04-15T09:35:02;2.30;;;1.03;;
9536;SDS011;4807;48.024;11.726;2023-04-15T09:38:18;2.00;;;1.00;;
9536;SDS011;4807;48.024;11.726;2023-04-15T09:41:26;1.50;;;1.20;;
9536;SDS011;4807;48.024;11.726;2023-04-15T09:44:35;3.93;;;1.07;;
9536;SDS011;4807;48.024;11.726;2023-04-15T09:47:45;1.80;;;1.07;;
9536;SDS011;4807;48.024;11.726;2023-04-15T09:50:54;2.17;;;1.00;;
9536;SDS011;4807;48.024;11.726;2023-04-15T09:54:08;4.27;;;1.90;;
9536;SDS011;4807;48.024;11.726;2023-04-15T09:57:16;2.53;;;1.70;;
9536;SDS011;4807;48.024;11.726;2023-04-15T10:00:25;2.93;;;1.63;;
9536;SDS011;4807;48.024;11.726;2023-04-15T10:03:34;2.10;;;1.60;;
9536;SDS011;4807;48.024;11.726;2023-04-15T10:06:44;2.53;;;1.10;;
9536;SDS011;4807;48.024;11.726;2023-04-15T10:09:52;2.43;;;1.60;;
9536;SDS011;4807;48.024;11.726;2023-04-15T10:13:03;4.83;;;2.10;;
9536;SDS011;4807;48.024;11.726;2023-04-15T10:16:13;6.17;;;3.23;;
9536;SDS011;4807;48.024;11.726;2023-04-15T10:19:23;7.03;;;3.20;;
9536;SDS011;4807;48.024;11.726;2023-04-15T10:22:40;3.83;;;1.70;;
9536;SDS011;4807;48.024;11.726;2023-04-15T10:25:54;4.43;;;1.63;;
9536;SDS011;4807;48.024;11.726;2023-04-15T10:29:04;7.77;;;2.83;;
9536;SDS011;4807;48.024;11.726;2023-04-15T10:32:13;16.90;;;5.17;;
9536;SDS011;4807;48.024;11.726;2023-04-15T10:35:23;2.83;;;1.50;;
9536;SDS011;4807;48.024;11.726;2023-04-15T10:38:37;4.40;;;1.60;;
9536;SDS011;4807;48.024;11.726;2023-04-15T10:41:47;4.37;;;1.77;;
9536;SDS011;4807;48.024;11.726;2023-04-15T10:45:15;3.63;;;1.53;;
9536;SDS011;4807;48.024;11.726;2023-04-15T10:48:25;2.00;;;1.40;;
9536;SDS011;4807;48.024;11.726;2023-04-15T10:51:33;5.00;;;1.80;;
9536;SDS011;4807;48.024;11.726;2023-04-15T10:54:50;1.83;;;1.67;;
9536;SDS011;4807;48.024;11.726;2023-04-15T10:58:10;4.10;;;2.00;;
9536;SDS011;4807;48.024;11.726;2023-04-15T11:01:20;2.73;;;1.73;;
9536;SDS011;4807;48.024;11.726;2023-04-15T11:08:07;3.80;;;1.80;;
9536;SDS011;4807;48.024;11.726;2023-04-15T11:11:18;3.03;;;2.23;;
9536;SDS011;4807;48.024;11.726;2023-04-15T11:14:27;1.70;;;1.47;;
9536;SDS011;4807;48.024;11.726;2023-04-15T11:17:35;2.10;;;1.67;;
9536;SDS011;4807;48.024;11.726;2023-04-15T11:20:44;3.60;;;2.17;;
9536;SDS011;4807;48.024;11.726;2023-04-15T11:23:55;4.53;;;2.03;;
9536;SDS011;4807;48.024;11.726;2023-04-15T11:27:05;3.73;;;2.33;;
9536;SDS011;4807;48.024;11.726;2023-04-15T11:30:17;2.93;;;1.67;;
9536;SDS011;4807;48.024;11.726;2023-04-15T11:33:28;4.03;;;1.90;;
9536;SDS011;4807;48.024;11.726;2023-04-15T11:36:36;2.67;;;1.80;;
9536;SDS011;4807;48.024;11.726;2023-04-15T11:39:45;3.30;;;2.43;;
9536;SDS011;4807;48.024;11.726;2023-04-15T11:43:07;3.90;;;2.17;;
9536;SDS011;4807;48.024;11.726;2023-04-15T11:46:17;2.60;;;2.20;;
9536;SDS011;4807;48.024;11.726;2023-04-15T11:49:28;3.60;;;2.13;;
9536;SDS011;4807;48.024;11.726;2023-04-15T11:52:42;3.40;;;1.70;;
9536;SDS011;4807;48.024;11.726;2023-04-15T11:56:00;4.47;;;1.87;;
9536;SDS011;4807;48.024;11.726;2023-04-15T11:59:10;2.27;;;1.80;;
9536;SDS011;4807;48.024;11.726;2023-04-15T12:02:19;2.43;;;2.13;;
9536;SDS011;4807;48.024;11.726;2023-04-15T12:09:15;4.17;;;2.70;;
9536;SDS011;4807;48.024;11.726;2023-04-15T12:12:26;2.53;;;1.93;;
9536;SDS011;4807;48.024;11.726;2023-04-15T12:15:38;4.83;;;2.80;;
9536;SDS011;4807;48.024;11.726;2023-04-15T12:18:49;4.03;;;2.83;;
9536;SDS011;4807;48.024;11.726;2023-04-15T12:21:59;2.87;;;2.27;;
9536;SDS011;4807;48.024;11.726;2023-04-15T12:25:10;4.70;;;2.27;;
9536;SDS011;4807;48.024;11.726;2023-04-15T12:28:20;5.93;;;2.30;;
9536;SDS011;4807;48.024;11.726;2023-04-15T12:31:30;2.90;;;2.20;;
9536;SDS011;4807;48.024;11.726;2023-04-15T12:34:39;3.90;;;2.83;;
9536;SDS011;4807;48.024;11.726;2023-04-15T12:37:51;6.80;;;3.07;;
9536;SDS011;4807;48.024;11.726;2023-04-15T12:40:59;2.50;;;2.17;;
9536;SDS011;4807;48.024;11.726;2023-04-15T12:44:08;3.27;;;2.10;;
9536;SDS011;4807;48.024;11.726;2023-04-15T12:47:19;4.13;;;2.57;;
9536;SDS011;4807;48.024;11.726;2023-04-15T12:50:27;3.90;;;2.40;;
9536;SDS011;4807;48.024;11.726;2023-04-15T12:53:36;2.43;;;2.20;;
9536;SDS011;4807;48.024;11.726;2023-04-15T12:56:44;2.80;;;2.47;;
9536;SDS011;4807;48.024;11.726;2023-04-15T12:59:54;2.53;;;1.90;;
9536;SDS011;4807;48.024;11.726;2023-04-15T13:03:04;5.53;;;2.40;;
9536;SDS011;4807;48.024;11.726;2023-04-15T13:06:12;2.10;;;1.90;;
9536;SDS011;4807;48.024;11.726;2023-04-15T13:09:21;5.63;;;4.50;;
9536;SDS011;4807;48.024;11.726;2023-04-15T13:12:29;4.90;;;2.13;;
9536;SDS011;4807;48.024;11.726;2023-04-15T13:15:38;2.67;;;2.20;;
9536;SDS011;4807;48.024;11.726;2023-04-15T13:18:48;3.20;;;1.83;;
9536;SDS011;4807;48.024;11.726;2023-04-15T13:21:56;2.60;;;1.90;;
9536;SDS011;4807;48.024;11.726;2023-04-15T13:25:05;2.50;;;1.80;;
9536;SDS011;4807;48.024;11.726;2023-04-15T13:28:14;2.50;;;2.00;;
9536;SDS011;4807;48.024;11.726;2023-04-15T13:31:23;3.03;;;1.80;;
9536;SDS011;4807;48.024;11.726;2023-04-15T13:34:33;2.57;;;2.10;;
9536;SDS011;4807;48.024;11.726;2023-04-15T13:37:42;4.83;;;3.47;;
9536;SDS011;4807;48.024;11.726;2023-04-15T13:40:50;8.27;;;5.27;;
9536;SDS011;4807;48.024;11.726;2023-04-15T13:43:58;8.80;;;5.63;;
9536;SDS011;4807;48.024;11.726;2023-04-15T13:47:07;6.60;;;3.47;;
9536;SDS011;4807;48.024;11.726;2023-04-15T13:50:17;3.03;;;2.17;;
9536;SDS011;4807;48.024;11.726;2023-04-15T13:53:26;2.53;;;1.30;;
9536;SDS011;4807;48.024;11.726;2023-04-15T13:56:44;1.77;;;1.47;;
9536;SDS011;4807;48.024;11.726;2023-04-15T13:59:52;1.30;;;1.20;;
9536;SDS011;4807;48.024;11.726;2023-04-15T14:03:01;2.37;;;1.23;;
9536;SDS011;4807;48.024;11.726;2023-04-15T14:06:11;3.33;;;1.47;;
9536;SDS011;4807;48.024;11.726;2023-04-15T14:09:19;2.40;;;1.60;;
9536;SDS011;4807;48.024;11.726;2023-04-15T14:12:31;1.90;;;1.80;;
9536;SDS011;4807;48.024;11.726;2023-04-15T14:15:40;1.60;;;1.50;;
9536;SDS011;4807;48.024;11.726;2023-04-15T14:18:48;1.53;;;1.20;;
9536;SDS011;4807;48.024;11.726;2023-04-15T14:21:58;3.63;;;1.50;;
9536;SDS011;4807;48.024;11.726;2023-04-15T14:25:07;2.80;;;1.90;;
9536;SDS011;4807;48.024;11.726;2023-04-15T14:28:28;2.97;;;1.73;;
9536;SDS011;4807;48.024;11.726;2023-04-15T14:31:37;3.17;;;2.20;;
9536;SDS011;4807;48.024;11.726;2023-04-15T14:34:48;4.17;;;2.47;;
9536;SDS011;4807;48.024;11.726;2023-04-15T14:37:57;4.07;;;1.73;;
9536;SDS011;4807;48.024;11.726;2023-04-15T14:41:06;2.20;;;1.67;;
9536;SDS011;4807;48.024;11.726;2023-04-15T14:44:16;3.70;;;2.07;;
9536;SDS011;4807;48.024;11.726;2023-04-15T14:47:24;1.63;;;1.53;;
9536;SDS011;4807;48.024;11.726;2023-04-15T14:50:33;3.17;;;1.53;;
9536;SDS011;4807;48.024;11.726;2023-04-15T14:53:42;2.00;;;1.80;;
9536;SDS011;4807;48.024;11.726;2023-04-15T14:56:51;4.00;;;1.53;;
9536;SDS011;4807;48.024;11.726;2023-04-15T15:00:00;2.60;;;1.47;;
9536;SDS011;4807;48.024;11.726;2023-04-15T15:03:09;4.30;;;1.63;;
9536;SDS011;4807;48.024;11.726;2023-04-15T15:06:21;4.07;;;1.13;;
9536;SDS011;4807;48.024;11.726;2023-04-15T15:09:31;2.90;;;1.10;;
9536;SDS011;4807;48.024;11.726;2023-04-15T15:12:40;2.13;;;1.37;;
9536;SDS011;4807;48.024;11.726;2023-04-15T15:15:48;1.90;;;1.10;;
9536;SDS011;4807;48.024;11.726;2023-04-15T15:18:57;1.67;;;1.20;;
9536;SDS011;4807;48.024;11.726;2023-04-15T15:22:05;2.63;;;1.50;;
9536;SDS011;4807;48.024;11.726;2023-04-15T15:25:15;4.93;;;1.30;;
9536;SDS011;4807;48.024;11.726;2023-04-15T15:28:24;4.73;;;1.37;;
9536;SDS011;4807;48.024;11.726;2023-04-15T15:31:33;1.50;;;1.40;;
9536;SDS011;4807;48.024;11.726;2023-04-15T15:34:42;5.17;;;1.63;;
9536;SDS011;4807;48.024;11.726;2023-04-15T15:37:54;1.97;;;1.50;;
9536;SDS011;4807;48.024;11.726;2023-04-15T15:41:04;2.87;;;1.23;;
9536;SDS011;4807;48.024;11.726;2023-04-15T15:44:12;4.23;;;2.10;;
9536;SDS011;4807;48.024;11.726;2023-04-15T15:47:22;3.07;;;2.77;;
9536;SDS011;4807;48.024;11.726;2023-04-15T15:50:32;3.03;;;2.00;;
9536;SDS011;4807;48.024;11.726;2023-04-15T15:53:41;1.53;;;1.43;;
9536;SDS011;4807;48.024;11.726;2023-04-15T15:56:51;2.40;;;2.00;;
9536;SDS011;4807;48.024;11.726;2023-04-15T16:00:00;2.13;;;1.60;;
9536;SDS011;4807;48.024;11.726;2023-04-15T16:03:11;1.87;;;1.77;;
9536;SDS011;4807;48.024;11.726;2023-04-15T16:06:20;1.67;;;1.50;;
9536;SDS011;4807;48.024;11.726;2023-04-15T16:09:28;3.97;;;2.77;;
9536;SDS011;4807;48.024;11.726;2023-04-15T16:12:38;2.13;;;2.03;;
9536;SDS011;4807;48.024;11.726;2023-04-15T16:15:47;2.67;;;2.20;;
9536;SDS011;4807;48.024;11.726;2023-04-15T16:18:56;3.17;;;2.60;;
9536;SDS011;4807;48.024;11.726;2023-04-15T16:22:04;4.13;;;3.40;;
9536;SDS011;4807;48.024;11.726;2023-04-15T16:25:13;3.73;;;3.30;;
9536;SDS011;4807;48.024;11.726;2023-04-15T16:28:23;4.63;;;3.57;;
9536;SDS011;4807;48.024;11.726;2023-04-15T16:31:32;2.70;;;2.47;;
9536;SDS011;4807;48.024;11.726;2023-04-15T16:34:42;4.53;;;2.70;;
9536;SDS011;4807;48.024;11.726;2023-04-15T16:37:50;2.90;;;2.60;;
9536;SDS011;4807;48.024;11.726;2023-04-15T16:40:59;4.17;;;2.20;;
9536;SDS011;4807;48.024;11.726;2023-04-15T16:44:09;5.47;;;1.97;;
9536;SDS011;4807;48.024;11.726;2023-04-15T16:47:18;4.40;;;2.60;;
9536;SDS011;4807;48.024;11.726;2023-04-15T16:50:26;2.63;;;2.10;;
9536;SDS011;4807;48.024;11.726;2023-04-15T16:53:34;2.50;;;2.13;;
9536;SDS011;4807;48.024;11.726;2023-04-15T16:56:42;5.07;;;1.90;;
9536;SDS011;4807;48.024;11.726;2023-04-15T16:59:52;4.13;;;2.47;;
9536;SDS011;4807;48.024;11.726;2023-04-15T17:03:00;3.13;;;2.83;;
9536;SDS011;4807;48.024;11.726;2023-04-15T17:06:09;2.33;;;1.93;;
9536;SDS011;4807;48.024;11.726;2023-04-15T17:09:17;3.93;;;2.43;;
9536;SDS011;4807;48.024;11.726;2023-04-15T17:12:25;4.37;;;2.60;;
9536;SDS011;4807;48.024;11.726;2023-04-15T17:15:35;3.10;;;2.00;;
9536;SDS011;4807;48.024;11.726;2023-04-15T17:18:43;3.57;;;2.93;;
9536;SDS011;4807;48.024;11.726;2023-04-15T17:21:52;1.73;;;1.50;;
9536;SDS011;4807;48.024;11.726;2023-04-15T17:25:00;2.10;;;1.40;;
9536;SDS011;4807;48.024;11.726;2023-04-15T17:28:09;3.77;;;1.97;;
9536;SDS011;4807;48.024;11.726;2023-04-15T17:31:19;4.60;;;1.40;;
9536;SDS011;4807;48.024;11.726;2023-04-15T17:34:28;2.13;;;1.63;;
9536;SDS011;4807;48.024;11.726;2023-04-15T17:37:56;2.47;;;1.43;;
9536;SDS011;4807;48.024;11.726;2023-04-15T17:41:04;1.60;;;1.50;;
9536;SDS011;4807;48.024;11.726;2023-04-15T17:44:13;2.67;;;1.53;;
9536;SDS011;4807;48.024;11.726;2023-04-15T17:47:23;2.57;;;2.07;;
9536;SDS011;4807;48.024;11.726;2023-04-15T17:50:32;3.70;;;2.47;;
9536;SDS011;4807;48.024;11.726;2023-04-15T17:53:40;2.63;;;2.00;;
9536;SDS011;4807;48.024;11.726;2023-04-15T17:56:49;3.33;;;2.03;;
9536;SDS011;4807;48.024;11.726;2023-04-15T17:59:57;2.43;;;2.23;;
9536;SDS011;4807;48.024;11.726;2023-04-15T18:03:08;4.87;;;3.67;;
9536;SDS011;4807;48.024;11.726;2023-04-15T18:06:17;8.50;;;3.93;;
9536;SDS011;4807;48.024;11.726;2023-04-15T18:09:26;3.67;;;3.10;;
9536;SDS011;4807;48.024;11.726;2023-04-15T18:12:35;4.00;;;3.60;;
9536;SDS011;4807;48.024;11.726;2023-04-15T18:15:43;6.30;;;5.03;;
9536;SDS011;4807;48.024;11.726;2023-04-15T18:18:54;4.20;;;3.50;;
9536;SDS011;4807;48.024;11.726;2023-04-15T18:22:02;4.60;;;3.57;;
9536;SDS011;4807;48.024;11.726;2023-04-15T18:25:10;7.03;;;3.70;;
9536;SDS011;4807;48.024;11.726;2023-04-15T18:28:19;3.80;;;2.93;;
9536;SDS011;4807;48.024;11.726;2023-04-15T18:31:28;8.47;;;3.40;;
9536;SDS011;4807;48.024;11.726;2023-04-15T18:34:38;5.13;;;4.10;;
9536;SDS011;4807;48.024;11.726;2023-04-15T18:37:48;4.10;;;3.70;;
9536;SDS011;4807;48.024;11.726;2023-04-15T18:40:56;3.87;;;3.43;;
9536;SDS011;4807;48.024;11.726;2023-04-15T18:44:05;5.03;;;3.30;;
9536;SDS011;4807;48.024;11.726;2023-04-15T18:47:13;3.40;;;3.10;;
9536;SDS011;4807;48.024;11.726;2023-04-15T18:50:24;3.37;;;3.07;;
9536;SDS011;4807;48.024;11.726;2023-04-15T18:53:32;5.13;;;2.80;;
9536;SDS011;4807;48.024;11.726;2023-04-15T18:56:41;4.43;;;2.67;;
9536;SDS011;4807;48.024;11.726;2023-04-15T18:59:49;3.77;;;3.37;;
9536;SDS011;4807;48.024;11.726;2023-04-15T19:02:58;4.17;;;3.10;;
9536;SDS011;4807;48.024;11.726;2023-04-15T19:06:08;7.43;;;5.03;;
9536;SDS011;4807;48.024;11.726;2023-04-15T19:09:16;3.37;;;3.07;;
9536;SDS011;4807;48.024;11.726;2023-04-15T19:12:24;4.50;;;3.97;;
9536;SDS011;4807;48.024;11.726;2023-04-15T19:15:33;2.47;;;2.27;;
9536;SDS011;4807;48.024;11.726;2023-04-15T19:18:41;3.80;;;2.23;;
9536;SDS011;4807;48.024;11.726;2023-04-15T19:21:51;3.47;;;3.17;;
9536;SDS011;4807;48.024;11.726;2023-04-15T19:24:59;6.43;;;4.23;;